Time,TemperatureF,DewpointF,PressureIn,WindDirection,WindDirectionDegrees,WindSpeedMPH,WindSpeedGustMPH,Humidity,HourlyPrecipIn,Conditions,Clouds,dailyrainin,SoftwareType,DateUTC
2014-08-29 00:03:00,66.1,57.0,29.90,NNW,346,10.0,-999.0,73,-99.99,,,0.00,weatherlink.com 1.10,2014-08-29 04:03:00,
2014-08-29 00:15:00,66.0,58.0,29.91,North,350,7.0,-999.0,74,-99.99,,,0.00,weatherlink.com 1.10,2014-08-29 04:15:00,
2014-08-29 00:30:00,65.9,57.0,29.91,NNE,19,5.0,-999.0,74,-99.99,,,0.00,weatherlink.com 1.10,2014-08-29 04:30:00,
2014-08-29 00:45:00,65.5,57.0,29.91,NNW,333,0.0,-999.0,74,-99.99,,,0.00,weatherlink.com 1.10,2014-08-29 04:45:00,
2014-08-29 01:03:00,65.6,58.0,29.92,North,350,14.0,-999.0,76,-99.99,,,0.00,weatherlink.com 1.10,2014-08-29 05:03:00,
2014-08-29 01:15:00,65.4,58.0,29.92,NNW,342,10.0,-999.0,76,-99.99,,,0.00,weatherlink.com 1.10,2014-08-29 05:15:00,
2014-08-29 01:30:00,64.9,57.0,29.92,NNW,340,4.0,-999.0,76,-99.99,,,0.00,weatherlink.com 1.10,2014-08-29 05:30:00,
2014-08-29 01:45:00,64.7,57.0,29.92,North,360,5.0,-999.0,75,-99.99,,,0.00,weatherlink.com 1.10,2014-08-29 05:45:00,
2014-08-29 02:03:00,64.7,57.0,29.93,North,355,11.0,-999.0,75,-99.99,,,0.00,weatherlink.com 1.10,2014-08-29 06:03:00,
2014-08-29 02:15:00,64.4,57.0,29.94,NNW,346,12.0,-999.0,76,-99.99,,,0.00,weatherlink.com 1.10,2014-08-29 06:15:00,
2014-08-29 02:31:00,64.1,57.0,29.94,NNW,331,3.0,-999.0,78,-99.99,,,0.00,weatherlink.com 1.10,2014-08-29 06:31:00,
2014-08-29 02:46:00,63.9,57.0,29.94,NNW,345,4.0,-999.0,78,-99.99,,,0.00,weatherlink.com 1.10,2014-08-29 06:46:00,
2014-08-29 03:04:00,63.5,57.0,29.94,NW,316,6.0,-999.0,79,-99.99,,,0.00,weatherlink.com 1.10,2014-08-29 07:04:00,
2014-08-29 03:16:00,62.9,57.0,29.95,NNW,329,2.0,-999.0,80,-99.99,,,0.00,weatherlink.com 1.10,2014-08-29 07:16:00,
2014-08-29 03:31:00,62.6,57.0,29.95,NNW,333,7.0,-999.0,81,-99.99,,,0.00,weatherlink.com 1.10,2014-08-29 07:31:00,
2014-08-29 03:46:00,62.9,57.0,29.95,NNW,348,9.0,-999.0,80,-99.99,,,0.00,weatherlink.com 1.10,2014-08-29 07:46:00,
2014-08-29 04:04:00,62.8,57.0,29.95,NNW,327,4.0,-999.0,80,-99.99,,,0.00,weatherlink.com 1.10,2014-08-29 08:04:00,
2014-08-29 04:16:00,62.7,57.0,29.95,North,5,5.0,-999.0,81,-99.99,,,0.00,weatherlink.com 1.10,2014-08-29 08:16:00,
2014-08-29 04:31:00,62.6,57.0,29.96,North,355,5.0,-999.0,82,-99.99,,,0.00,weatherlink.com 1.10,2014-08-29 08:31:00,
2014-08-29 04:46:00,62.5,57.0,29.96,NNW,330,7.0,-999.0,82,-99.99,,,0.00,weatherlink.com 1.10,2014-08-29 08:46:00,
2014-08-29 05:04:00,62.2,57.0,29.98,NNW,340,7.0,-999.0,83,-99.99,,,0.00,weatherlink.com 1.10,2014-08-29 09:04:00,
2014-08-29 05:16:00,61.9,57.0,29.98,NNW,342,7.0,-999.0,84,-99.99,,,0.00,weatherlink.com 1.10,2014-08-29 09:16:00,
2014-08-29 05:31:00,61.7,57.0,29.98,NW,324,4.0,-999.0,85,-99.99,,,0.00,weatherlink.com 1.10,2014-08-29 09:31:00,
2014-08-29 05:46:00,61.6,57.0,29.99,NNW,336,6.0,-999.0,85,-99.99,,,0.00,weatherlink.com 1.10,2014-08-29 09:46:00,
2014-08-29 06:04:00,61.7,57.0,30.00,North,350,8.0,-999.0,85,-99.99,,,0.00,weatherlink.com 1.10,2014-08-29 10:04:00,
2014-08-29 06:16:00,61.9,57.0,30.00,NNW,341,1.0,-999.0,85,-99.99,,,0.00,weatherlink.com 1.10,2014-08-29 10:16:00,
2014-08-29 06:31:00,62.7,58.0,30.01,North,9,7.0,-999.0,85,-99.99,,,0.00,weatherlink.com 1.10,2014-08-29 10:31:00,
2014-08-29 06:46:00,63.6,58.0,30.02,North,355,6.0,-999.0,83,-99.99,,,0.00,weatherlink.com 1.10,2014-08-29 10:46:00,
2014-08-29 07:04:00,64.8,59.0,30.03,North,360,3.0,-999.0,82,-99.99,,,0.00,weatherlink.com 1.10,2014-08-29 11:04:00,
2014-08-29 07:16:00,66.3,60.0,30.04,North,355,2.0,-999.0,80,-99.99,,,0.00,weatherlink.com 1.10,2014-08-29 11:16:00,
2014-08-29 07:31:00,67.4,60.0,30.04,North,355,3.0,-999.0,78,-99.99,,,0.00,weatherlink.com 1.10,2014-08-29 11:31:00,
2014-08-29 07:46:00,68.7,61.0,30.05,North,9,5.0,-999.0,76,-99.99,,,0.00,weatherlink.com 1.10,2014-08-29 11:46:00,
2014-08-29 08:04:00,69.6,61.0,30.05,North,355,9.0,-999.0,75,-99.99,,,0.00,weatherlink.com 1.10,2014-08-29 12:04:00,
2014-08-29 08:16:00,70.7,62.0,30.05,North,355,5.0,-999.0,74,-99.99,,,0.00,weatherlink.com 1.10,2014-08-29 12:16:00,
2014-08-29 08:31:00,71.9,62.0,30.06,NNW,343,5.0,-999.0,70,-99.99,,,0.00,weatherlink.com 1.10,2014-08-29 12:31:00,
2014-08-29 08:47:00,72.8,62.0,30.07,North,11,10.0,-999.0,69,-99.99,,,0.00,weatherlink.com 1.10,2014-08-29 12:47:00,
2014-08-29 09:05:00,72.4,61.0,30.07,North,355,9.0,-999.0,68,-99.99,,,0.00,weatherlink.com 1.10,2014-08-29 13:05:00,